Terminal Aerodrome Forecast
Issued by NWS Charleston, WV

Current Version | Previous Version | Graphics & Text | Print | Product List | Glossary On
Versions: 1 2 3 4 5 6 7 8 9 10 11 12 13 14 15 16 17 18 19 20 21 22 23 24
000
FTUS41 KRLX 220200 AAA
TAFBKW
TAF AMD
KBKW 220238Z 2203/2224 26010KT P6SM BKN070
     FM220800 22010KT 6SM SHRA BKN045
     FM221000 22008KT P6SM BKN050
     FM221600 26015G26KT 6SM SHRA VCTS BKN045CB
     FM221800 28013G24KT 4SM SHRA VCTS OVC020CB
     FM222200 28013G24KT P6SM BKN040=

USA.gov is the U.S. government's official web portal to all federal, state and local government web resources and services.